sensor_id;sensor_type;location;lat;lon;timestamp;temperature;humidity
15615;DHT22;7907;51.368;6.730;2022-10-16T00:01:16;14.40;99.90
15615;DHT22;7907;51.368;6.730;2022-10-16T00:03:44;14.30;99.90
15615;DHT22;7907;51.368;6.730;2022-10-16T00:06:13;14.30;99.90
15615;DHT22;7907;51.368;6.730;2022-10-16T00:08:40;14.30;99.90
15615;DHT22;7907;51.368;6.730;2022-10-16T00:11:11;14.30;99.90
15615;DHT22;7907;51.368;6.730;2022-10-16T00:13:40;14.30;99.90
15615;DHT22;7907;51.368;6.730;2022-10-16T00:16:08;14.30;99.90
15615;DHT22;7907;51.368;6.730;2022-10-16T00:18:36;14.30;99.90
15615;DHT22;7907;51.368;6.730;2022-10-16T00:21:06;14.30;99.90
15615;DHT22;7907;51.368;6.730;2022-10-16T00:23:33;14.30;99.90
15615;DHT22;7907;51.368;6.730;2022-10-16T00:26:02;14.30;99.90
15615;DHT22;7907;51.368;6.730;2022-10-16T00:28:31;14.20;99.90
15615;DHT22;7907;51.368;6.730;2022-10-16T00:30:58;14.20;99.90
15615;DHT22;7907;51.368;6.730;2022-10-16T00:33:25;14.20;99.90
15615;DHT22;7907;51.368;6.730;2022-10-16T00:35:52;14.20;99.90
15615;DHT22;7907;51.368;6.730;2022-10-16T00:38:19;14.20;99.90
15615;DHT22;7907;51.368;6.730;2022-10-16T00:40:46;14.20;99.90
15615;DHT22;7907;51.368;6.730;2022-10-16T00:43:36;14.20;99.90
15615;DHT22;7907;51.368;6.730;2022-10-16T00:46:08;14.20;99.90
15615;DHT22;7907;51.368;6.730;2022-10-16T00:48:37;14.20;99.90
15615;DHT22;7907;51.368;6.730;2022-10-16T00:51:06;14.20;99.90
15615;DHT22;7907;51.368;6.730;2022-10-16T00:53:35;14.10;99.90
15615;DHT22;7907;51.368;6.730;2022-10-16T00:56:03;14.10;99.90
15615;DHT22;7907;51.368;6.730;2022-10-16T00:58:30;14.10;99.90
15615;DHT22;7907;51.368;6.730;2022-10-16T01:00:59;14.10;99.90
15615;DHT22;7907;51.368;6.730;2022-10-16T01:03:28;14.10;99.90
15615;DHT22;7907;51.368;6.730;2022-10-16T01:06:04;14.10;99.90
15615;DHT22;7907;51.368;6.730;2022-10-16T01:08:43;14.10;99.90
15615;DHT22;7907;51.368;6.730;2022-10-16T01:11:17;14.00;99.90
15615;DHT22;7907;51.368;6.730;2022-10-16T01:13:53;14.20;99.90
15615;DHT22;7907;51.368;6.730;2022-10-16T01:16:30;14.10;99.90
15615;DHT22;7907;51.368;6.730;2022-10-16T01:19:04;14.10;99.90
15615;DHT22;7907;51.368;6.730;2022-10-16T01:21:38;14.10;99.90
15615;DHT22;7907;51.368;6.730;2022-10-16T01:24:12;14.10;99.90
15615;DHT22;7907;51.368;6.730;2022-10-16T01:27:11;14.10;99.90
15615;DHT22;7907;51.368;6.730;2022-10-16T01:29:45;14.10;99.90
15615;DHT22;7907;51.368;6.730;2022-10-16T01:32:19;14.10;99.90
15615;DHT22;7907;51.368;6.730;2022-10-16T01:34:49;14.10;99.90
15615;DHT22;7907;51.368;6.730;2022-10-16T01:37:24;14.10;99.90
15615;DHT22;7907;51.368;6.730;2022-10-16T01:39:56;14.20;99.90
15615;DHT22;7907;51.368;6.730;2022-10-16T01:42:31;14.20;99.90
15615;DHT22;7907;51.368;6.730;2022-10-16T01:45:01;14.20;99.90
15615;DHT22;7907;51.368;6.730;2022-10-16T01:47:30;14.20;99.90
15615;DHT22;7907;51.368;6.730;2022-10-16T01:49:59;14.30;99.90
15615;DHT22;7907;51.368;6.730;2022-10-16T01:52:27;14.20;99.90
15615;DHT22;7907;51.368;6.730;2022-10-16T01:54:57;14.20;99.90
15615;DHT22;7907;51.368;6.730;2022-10-16T01:57:28;14.30;99.90
15615;DHT22;7907;51.368;6.730;2022-10-16T02:00:01;14.20;99.90
15615;DHT22;7907;51.368;6.730;2022-10-16T02:02:30;14.20;99.90
15615;DHT22;7907;51.368;6.730;2022-10-16T02:05:03;14.20;99.90
15615;DHT22;7907;51.368;6.730;2022-10-16T02:07:31;14.20;99.90
15615;DHT22;7907;51.368;6.730;2022-10-16T02:09:59;14.20;99.90
15615;DHT22;7907;51.368;6.730;2022-10-16T02:12:31;14.10;99.90
15615;DHT22;7907;51.368;6.730;2022-10-16T02:14:59;14.10;99.90
15615;DHT22;7907;51.368;6.730;2022-10-16T02:17:27;14.10;99.90
15615;DHT22;7907;51.368;6.730;2022-10-16T02:19:56;14.10;99.90
15615;DHT22;7907;51.368;6.730;2022-10-16T02:22:27;14.10;99.90
15615;DHT22;7907;51.368;6.730;2022-10-16T02:24:57;14.10;99.90
15615;DHT22;7907;51.368;6.730;2022-10-16T02:27:30;14.10;99.90
15615;DHT22;7907;51.368;6.730;2022-10-16T02:30:07;14.10;99.90
15615;DHT22;7907;51.368;6.730;2022-10-16T02:32:40;14.20;99.90
15615;DHT22;7907;51.368;6.730;2022-10-16T02:35:08;14.20;99.90
15615;DHT22;7907;51.368;6.730;2022-10-16T02:37:36;14.20;99.90
15615;DHT22;7907;51.368;6.730;2022-10-16T02:40:06;14.20;99.90
15615;DHT22;7907;51.368;6.730;2022-10-16T02:42:36;14.20;99.90
15615;DHT22;7907;51.368;6.730;2022-10-16T02:45:04;14.20;99.90
15615;DHT22;7907;51.368;6.730;2022-10-16T02:47:31;14.20;99.90
15615;DHT22;7907;51.368;6.730;2022-10-16T02:49:59;14.20;99.90
15615;DHT22;7907;51.368;6.730;2022-10-16T02:52:26;14.20;99.90
15615;DHT22;7907;51.368;6.730;2022-10-16T02:54:53;14.30;99.90
15615;DHT22;7907;51.368;6.730;2022-10-16T02:57:20;14.20;99.90
15615;DHT22;7907;51.368;6.730;2022-10-16T02:59:48;14.30;99.90
15615;DHT22;7907;51.368;6.730;2022-10-16T03:02:16;14.30;99.90
15615;DHT22;7907;51.368;6.730;2022-10-16T03:04:43;14.30;99.90
15615;DHT22;7907;51.368;6.730;2022-10-16T03:07:10;14.30;99.90
15615;DHT22;7907;51.368;6.730;2022-10-16T03:09:37;14.20;99.90
15615;DHT22;7907;51.368;6.730;2022-10-16T03:12:05;14.30;99.90
15615;DHT22;7907;51.368;6.730;2022-10-16T03:14:32;14.20;99.90
15615;DHT22;7907;51.368;6.730;2022-10-16T03:17:00;14.30;99.90
15615;DHT22;7907;51.368;6.730;2022-10-16T03:19:27;14.30;99.90
15615;DHT22;7907;51.368;6.730;2022-10-16T03:21:55;14.30;99.90
15615;DHT22;7907;51.368;6.730;2022-10-16T03:24:22;14.20;99.90
15615;DHT22;7907;51.368;6.730;2022-10-16T03:26:49;14.20;99.90
15615;DHT22;7907;51.368;6.730;2022-10-16T03:29:16;14.20;99.90
15615;DHT22;7907;51.368;6.730;2022-10-16T03:31:44;14.20;99.90
15615;DHT22;7907;51.368;6.730;2022-10-16T03:34:12;14.20;99.90
15615;DHT22;7907;51.368;6.730;2022-10-16T03:36:39;14.20;99.90
15615;DHT22;7907;51.368;6.730;2022-10-16T03:39:06;14.20;99.90
15615;DHT22;7907;51.368;6.730;2022-10-16T03:41:33;14.20;99.90
15615;DHT22;7907;51.368;6.730;2022-10-16T03:44:00;14.20;99.90
15615;DHT22;7907;51.368;6.730;2022-10-16T03:46:27;14.20;99.90
15615;DHT22;7907;51.368;6.730;2022-10-16T03:48:55;14.10;99.90
15615;DHT22;7907;51.368;6.730;2022-10-16T03:51:23;14.10;99.90
15615;DHT22;7907;51.368;6.730;2022-10-16T03:53:50;14.10;99.90
15615;DHT22;7907;51.368;6.730;2022-10-16T03:56:18;14.10;99.90
15615;DHT22;7907;51.368;6.730;2022-10-16T03:58:45;14.00;99.90
15615;DHT22;7907;51.368;6.730;2022-10-16T04:01:12;14.00;99.90
15615;DHT22;7907;51.368;6.730;2022-10-16T04:03:39;14.00;99.90
15615;DHT22;7907;51.368;6.730;2022-10-16T04:06:06;14.00;99.90
15615;DHT22;7907;51.368;6.730;2022-10-16T04:08:35;13.90;99.90
15615;DHT22;7907;51.368;6.730;2022-10-16T04:11:05;14.00;99.90
15615;DHT22;7907;51.368;6.730;2022-10-16T04:13:32;14.00;99.90
15615;DHT22;7907;51.368;6.730;2022-10-16T04:15:59;13.90;99.90
15615;DHT22;7907;51.368;6.730;2022-10-16T04:18:26;13.90;99.90
15615;DHT22;7907;51.368;6.730;2022-10-16T04:20:53;13.90;99.90
15615;DHT22;7907;51.368;6.730;2022-10-16T04:23:20;13.90;99.90
15615;DHT22;7907;51.368;6.730;2022-10-16T04:25:50;13.90;99.90
15615;DHT22;7907;51.368;6.730;2022-10-16T04:28:17;13.90;99.90
15615;DHT22;7907;51.368;6.730;2022-10-16T04:30:44;13.80;99.90
15615;DHT22;7907;51.368;6.730;2022-10-16T04:33:11;13.80;99.90
15615;DHT22;7907;51.368;6.730;2022-10-16T04:35:38;13.80;99.90
15615;DHT22;7907;51.368;6.730;2022-10-16T04:38:05;13.80;99.90
15615;DHT22;7907;51.368;6.730;2022-10-16T04:40:32;13.80;99.90
15615;DHT22;7907;51.368;6.730;2022-10-16T04:43:03;13.70;99.90
15615;DHT22;7907;51.368;6.730;2022-10-16T04:45:30;13.70;99.90
15615;DHT22;7907;51.368;6.730;2022-10-16T04:47:58;13.70;99.90
15615;DHT22;7907;51.368;6.730;2022-10-16T04:50:25;13.70;99.90
15615;DHT22;7907;51.368;6.730;2022-10-16T04:52:52;13.70;99.90
15615;DHT22;7907;51.368;6.730;2022-10-16T04:55:19;13.60;99.90
15615;DHT22;7907;51.368;6.730;2022-10-16T04:57:46;13.70;99.90
15615;DHT22;7907;51.368;6.730;2022-10-16T05:00:14;13.70;99.90
15615;DHT22;7907;51.368;6.730;2022-10-16T05:02:41;13.70;99.90
15615;DHT22;7907;51.368;6.730;2022-10-16T05:05:09;13.70;99.90
15615;DHT22;7907;51.368;6.730;2022-10-16T05:07:36;13.70;99.90
15615;DHT22;7907;51.368;6.730;2022-10-16T05:10:03;13.70;99.90
15615;DHT22;7907;51.368;6.730;2022-10-16T05:12:31;13.70;99.90
15615;DHT22;7907;51.368;6.730;2022-10-16T05:14:58;13.70;99.90
15615;DHT22;7907;51.368;6.730;2022-10-16T05:17:26;13.70;99.90
15615;DHT22;7907;51.368;6.730;2022-10-16T05:19:53;13.70;99.90
15615;DHT22;7907;51.368;6.730;2022-10-16T05:22:20;13.70;99.90
15615;DHT22;7907;51.368;6.730;2022-10-16T05:24:47;13.70;99.90
15615;DHT22;7907;51.368;6.730;2022-10-16T05:27:14;13.70;99.90
15615;DHT22;7907;51.368;6.730;2022-10-16T05:29:45;13.70;99.90
15615;DHT22;7907;51.368;6.730;2022-10-16T05:32:12;13.70;99.90
15615;DHT22;7907;51.368;6.730;2022-10-16T05:34:41;13.70;99.90
15615;DHT22;7907;51.368;6.730;2022-10-16T05:37:08;13.70;99.90
15615;DHT22;7907;51.368;6.730;2022-10-16T05:39:36;13.70;99.90
15615;DHT22;7907;51.368;6.730;2022-10-16T05:42:03;13.70;99.90
15615;DHT22;7907;51.368;6.730;2022-10-16T05:44:30;13.70;99.90
15615;DHT22;7907;51.368;6.730;2022-10-16T05:46:57;13.70;99.90
15615;DHT22;7907;51.368;6.730;2022-10-16T05:49:24;13.70;99.90
15615;DHT22;7907;51.368;6.730;2022-10-16T05:51:53;13.70;99.90
15615;DHT22;7907;51.368;6.730;2022-10-16T05:54:20;13.70;99.90
15615;DHT22;7907;51.368;6.730;2022-10-16T05:56:47;13.70;99.90
15615;DHT22;7907;51.368;6.730;2022-10-16T05:59:14;13.70;99.90
15615;DHT22;7907;51.368;6.730;2022-10-16T06:01:41;13.70;99.90
15615;DHT22;7907;51.368;6.730;2022-10-16T06:04:09;13.70;99.90
15615;DHT22;7907;51.368;6.730;2022-10-16T06:06:36;13.70;99.90
15615;DHT22;7907;51.368;6.730;2022-10-16T06:09:04;13.70;99.90
15615;DHT22;7907;51.368;6.730;2022-10-16T06:11:33;13.70;99.90
15615;DHT22;7907;51.368;6.730;2022-10-16T06:14:01;13.70;99.90
15615;DHT22;7907;51.368;6.730;2022-10-16T06:16:32;13.60;99.90
15615;DHT22;7907;51.368;6.730;2022-10-16T06:19:00;13.60;99.90
15615;DHT22;7907;51.368;6.730;2022-10-16T06:21:28;13.60;99.90
15615;DHT22;7907;51.368;6.730;2022-10-16T06:23:56;13.60;99.90
15615;DHT22;7907;51.368;6.730;2022-10-16T06:26:26;13.60;99.90
15615;DHT22;7907;51.368;6.730;2022-10-16T06:28:54;13.60;99.90
15615;DHT22;7907;51.368;6.730;2022-10-16T06:31:22;13.60;99.90
15615;DHT22;7907;51.368;6.730;2022-10-16T06:33:53;13.60;99.90
15615;DHT22;7907;51.368;6.730;2022-10-16T06:36:22;13.70;99.90
15615;DHT22;7907;51.368;6.730;2022-10-16T06:38:49;13.70;99.90
15615;DHT22;7907;51.368;6.730;2022-10-16T06:41:19;13.70;99.90
15615;DHT22;7907;51.368;6.730;2022-10-16T06:43:48;13.70;99.90
15615;DHT22;7907;51.368;6.730;2022-10-16T06:46:17;13.70;99.90
15615;DHT22;7907;51.368;6.730;2022-10-16T06:48:45;13.70;99.90
15615;DHT22;7907;51.368;6.730;2022-10-16T06:51:14;13.80;99.90
15615;DHT22;7907;51.368;6.730;2022-10-16T06:53:43;13.70;99.90
15615;DHT22;7907;51.368;6.730;2022-10-16T06:56:11;13.70;99.90
15615;DHT22;7907;51.368;6.730;2022-10-16T06:58:39;13.80;99.90
15615;DHT22;7907;51.368;6.730;2022-10-16T07:01:08;13.80;99.90
15615;DHT22;7907;51.368;6.730;2022-10-16T07:03:36;13.70;99.90
15615;DHT22;7907;51.368;6.730;2022-10-16T07:06:06;13.70;99.90
15615;DHT22;7907;51.368;6.730;2022-10-16T07:08:35;13.80;99.90
15615;DHT22;7907;51.368;6.730;2022-10-16T07:11:05;13.80;99.90
15615;DHT22;7907;51.368;6.730;2022-10-16T07:13:33;13.80;99.90
15615;DHT22;7907;51.368;6.730;2022-10-16T07:16:04;13.70;99.90
15615;DHT22;7907;51.368;6.730;2022-10-16T07:18:33;13.70;99.90
15615;DHT22;7907;51.368;6.730;2022-10-16T07:21:04;13.70;99.90
15615;DHT22;7907;51.368;6.730;2022-10-16T07:23:31;13.70;99.90
15615;DHT22;7907;51.368;6.730;2022-10-16T07:25:58;13.70;99.90
15615;DHT22;7907;51.368;6.730;2022-10-16T07:28:26;13.70;99.90
15615;DHT22;7907;51.368;6.730;2022-10-16T07:30:53;13.70;99.90
15615;DHT22;7907;51.368;6.730;2022-10-16T07:33:21;13.80;99.90
15615;DHT22;7907;51.368;6.730;2022-10-16T07:35:52;13.80;99.90
15615;DHT22;7907;51.368;6.730;2022-10-16T07:38:21;13.90;99.90
15615;DHT22;7907;51.368;6.730;2022-10-16T07:40:55;13.90;99.90
15615;DHT22;7907;51.368;6.730;2022-10-16T07:43:22;14.00;99.90
15615;DHT22;7907;51.368;6.730;2022-10-16T07:45:50;14.10;99.90
15615;DHT22;7907;51.368;6.730;2022-10-16T07:48:18;14.10;99.90
15615;DHT22;7907;51.368;6.730;2022-10-16T07:50:45;14.20;99.90
15615;DHT22;7907;51.368;6.730;2022-10-16T07:53:14;14.30;99.90
15615;DHT22;7907;51.368;6.730;2022-10-16T07:55:42;14.30;99.90
15615;DHT22;7907;51.368;6.730;2022-10-16T07:58:09;14.40;99.90
15615;DHT22;7907;51.368;6.730;2022-10-16T08:00:36;14.50;99.90
15615;DHT22;7907;51.368;6.730;2022-10-16T08:03:04;14.60;99.90
15615;DHT22;7907;51.368;6.730;2022-10-16T08:05:32;14.60;99.90
15615;DHT22;7907;51.368;6.730;2022-10-16T08:08:00;14.70;99.90
15615;DHT22;7907;51.368;6.730;2022-10-16T08:10:29;14.80;99.90
15615;DHT22;7907;51.368;6.730;2022-10-16T08:12:57;14.80;99.90
15615;DHT22;7907;51.368;6.730;2022-10-16T08:15:25;14.90;99.90
15615;DHT22;7907;51.368;6.730;2022-10-16T08:17:56;15.00;99.90
15615;DHT22;7907;51.368;6.730;2022-10-16T08:20:24;15.10;99.90
15615;DHT22;7907;51.368;6.730;2022-10-16T08:22:51;15.20;99.90
15615;DHT22;7907;51.368;6.730;2022-10-16T08:25:18;15.20;99.90
15615;DHT22;7907;51.368;6.730;2022-10-16T08:27:47;15.30;99.90
15615;DHT22;7907;51.368;6.730;2022-10-16T08:30:14;15.40;99.90
15615;DHT22;7907;51.368;6.730;2022-10-16T08:32:42;15.50;99.90
15615;DHT22;7907;51.368;6.730;2022-10-16T08:35:09;15.50;99.90
15615;DHT22;7907;51.368;6.730;2022-10-16T08:37:37;15.60;99.90
15615;DHT22;7907;51.368;6.730;2022-10-16T08:40:16;15.70;99.90
15615;DHT22;7907;51.368;6.730;2022-10-16T08:43:04;15.70;99.90
15615;DHT22;7907;51.368;6.730;2022-10-16T08:45:40;15.80;99.90
15615;DHT22;7907;51.368;6.730;2022-10-16T08:48:17;15.90;99.90
15615;DHT22;7907;51.368;6.730;2022-10-16T08:50:48;15.90;99.90
15615;DHT22;7907;51.368;6.730;2022-10-16T08:53:20;16.00;99.90
15615;DHT22;7907;51.368;6.730;2022-10-16T08:55:50;16.10;99.90
15615;DHT22;7907;51.368;6.730;2022-10-16T08:58:21;16.20;99.90
15615;DHT22;7907;51.368;6.730;2022-10-16T09:00:52;16.20;99.90
15615;DHT22;7907;51.368;6.730;2022-10-16T09:03:41;16.20;99.90
15615;DHT22;7907;51.368;6.730;2022-10-16T09:06:21;16.30;99.90
15615;DHT22;7907;51.368;6.730;2022-10-16T09:09:02;16.40;99.90
15615;DHT22;7907;51.368;6.730;2022-10-16T09:11:39;16.50;99.90
15615;DHT22;7907;51.368;6.730;2022-10-16T09:14:23;16.60;99.90
15615;DHT22;7907;51.368;6.730;2022-10-16T09:17:07;16.60;99.90
15615;DHT22;7907;51.368;6.730;2022-10-16T09:19:41;16.70;99.90
15615;DHT22;7907;51.368;6.730;2022-10-16T09:22:14;16.80;99.90
15615;DHT22;7907;51.368;6.730;2022-10-16T09:24:41;16.80;99.90
15615;DHT22;7907;51.368;6.730;2022-10-16T09:27:10;16.90;99.90
15615;DHT22;7907;51.368;6.730;2022-10-16T09:29:39;17.00;99.90
15615;DHT22;7907;51.368;6.730;2022-10-16T09:32:11;17.00;99.90
15615;DHT22;7907;51.368;6.730;2022-10-16T09:34:42;17.10;99.90
15615;DHT22;7907;51.368;6.730;2022-10-16T09:37:14;17.20;99.90
15615;DHT22;7907;51.368;6.730;2022-10-16T09:39:48;17.20;99.90
15615;DHT22;7907;51.368;6.730;2022-10-16T09:42:17;17.30;99.90
15615;DHT22;7907;51.368;6.730;2022-10-16T09:44:50;17.30;99.90
15615;DHT22;7907;51.368;6.730;2022-10-16T09:47:21;17.40;99.90
15615;DHT22;7907;51.368;6.730;2022-10-16T09:49:54;17.50;99.90
15615;DHT22;7907;51.368;6.730;2022-10-16T09:52:23;17.50;99.90
15615;DHT22;7907;51.368;6.730;2022-10-16T09:54:54;17.50;99.90
15615;DHT22;7907;51.368;6.730;2022-10-16T09:57:22;17.60;99.90
15615;DHT22;7907;51.368;6.730;2022-10-16T09:59:52;17.70;99.90
15615;DHT22;7907;51.368;6.730;2022-10-16T10:02:27;17.80;99.90
15615;DHT22;7907;51.368;6.730;2022-10-16T10:04:56;17.80;99.90
15615;DHT22;7907;51.368;6.730;2022-10-16T10:07:26;17.90;99.90
15615;DHT22;7907;51.368;6.730;2022-10-16T10:09:54;17.90;99.90
15615;DHT22;7907;51.368;6.730;2022-10-16T10:12:24;18.00;99.90
15615;DHT22;7907;51.368;6.730;2022-10-16T10:14:55;18.00;99.90
15615;DHT22;7907;51.368;6.730;2022-10-16T10:17:24;18.10;99.90
15615;DHT22;7907;51.368;6.730;2022-10-16T10:19:54;18.10;99.90
15615;DHT22;7907;51.368;6.730;2022-10-16T10:22:28;18.30;99.90
15615;DHT22;7907;51.368;6.730;2022-10-16T10:24:57;18.30;99.90
15615;DHT22;7907;51.368;6.730;2022-10-16T10:27:32;18.30;99.90
15615;DHT22;7907;51.368;6.730;2022-10-16T10:30:07;18.40;99.90
15615;DHT22;7907;51.368;6.730;2022-10-16T10:32:43;18.40;99.90
15615;DHT22;7907;51.368;6.730;2022-10-16T10:35:17;18.50;99.90
15615;DHT22;7907;51.368;6.730;2022-10-16T10:37:55;18.60;99.90
15615;DHT22;7907;51.368;6.730;2022-10-16T10:40:34;18.60;99.90
15615;DHT22;7907;51.368;6.730;2022-10-16T10:43:12;18.70;99.90
15615;DHT22;7907;51.368;6.730;2022-10-16T10:45:46;18.80;99.90
15615;DHT22;7907;51.368;6.730;2022-10-16T10:48:31;18.90;99.90
15615;DHT22;7907;51.368;6.730;2022-10-16T10:51:12;18.90;99.90
15615;DHT22;7907;51.368;6.730;2022-10-16T10:53:45;18.90;99.90
15615;DHT22;7907;51.368;6.730;2022-10-16T10:56:34;18.90;99.90
15615;DHT22;7907;51.368;6.730;2022-10-16T11:02:18;19.20;99.90
15615;DHT22;7907;51.368;6.730;2022-10-16T11:05:14;19.30;99.90
15615;DHT22;7907;51.368;6.730;2022-10-16T11:07:48;19.50;99.90
15615;DHT22;7907;51.368;6.730;2022-10-16T11:10:20;19.60;99.90
15615;DHT22;7907;51.368;6.730;2022-10-16T11:12:51;19.80;99.90
15615;DHT22;7907;51.368;6.730;2022-10-16T11:15:23;19.80;99.90
15615;DHT22;7907;51.368;6.730;2022-10-16T11:17:57;19.90;99.90
15615;DHT22;7907;51.368;6.730;2022-10-16T11:20:27;20.00;99.90
15615;DHT22;7907;51.368;6.730;2022-10-16T11:23:00;20.10;99.90
15615;DHT22;7907;51.368;6.730;2022-10-16T11:25:30;20.10;99.90
15615;DHT22;7907;51.368;6.730;2022-10-16T11:28:02;20.30;99.90
15615;DHT22;7907;51.368;6.730;2022-10-16T11:30:31;20.50;99.90
15615;DHT22;7907;51.368;6.730;2022-10-16T11:33:25;20.50;99.90
15615;DHT22;7907;51.368;6.730;2022-10-16T11:36:00;20.70;99.90
15615;DHT22;7907;51.368;6.730;2022-10-16T11:38:34;20.80;99.90
15615;DHT22;7907;51.368;6.730;2022-10-16T11:41:15;21.10;99.90
15615;DHT22;7907;51.368;6.730;2022-10-16T11:43:52;21.20;99.90
15615;DHT22;7907;51.368;6.730;2022-10-16T11:46:22;21.30;99.90
15615;DHT22;7907;51.368;6.730;2022-10-16T11:49:00;21.40;99.90
15615;DHT22;7907;51.368;6.730;2022-10-16T11:51:35;21.50;99.90
15615;DHT22;7907;51.368;6.730;2022-10-16T11:54:09;21.40;99.90
15615;DHT22;7907;51.368;6.730;2022-10-16T11:56:43;21.40;99.90
15615;DHT22;7907;51.368;6.730;2022-10-16T11:59:17;21.60;99.90
15615;DHT22;7907;51.368;6.730;2022-10-16T12:01:49;21.80;99.90
15615;DHT22;7907;51.368;6.730;2022-10-16T12:04:25;22.00;99.90
15615;DHT22;7907;51.368;6.730;2022-10-16T12:06:58;22.20;99.90
15615;DHT22;7907;51.368;6.730;2022-10-16T12:09:28;22.30;99.90
15615;DHT22;7907;51.368;6.730;2022-10-16T12:11:56;22.30;99.90
15615;DHT22;7907;51.368;6.730;2022-10-16T12:14:39;22.30;99.90
15615;DHT22;7907;51.368;6.730;2022-10-16T12:17:24;22.40;99.90
15615;DHT22;7907;51.368;6.730;2022-10-16T12:20:18;22.50;99.90
15615;DHT22;7907;51.368;6.730;2022-10-16T12:22:49;22.30;99.90
15615;DHT22;7907;51.368;6.730;2022-10-16T12:25:22;22.40;99.90
15615;DHT22;7907;51.368;6.730;2022-10-16T12:27:59;22.20;99.10
15615;DHT22;7907;51.368;6.730;2022-10-16T12:30:29;22.20;99.20
15615;DHT22;7907;51.368;6.730;2022-10-16T12:32:59;22.20;99.00
15615;DHT22;7907;51.368;6.730;2022-10-16T12:35:31;22.20;97.70
15615;DHT22;7907;51.368;6.730;2022-10-16T12:38:08;22.30;99.20
15615;DHT22;7907;51.368;6.730;2022-10-16T12:40:42;22.40;99.40
15615;DHT22;7907;51.368;6.730;2022-10-16T12:43:25;22.40;99.70
15615;DHT22;7907;51.368;6.730;2022-10-16T12:46:01;22.30;99.40
15615;DHT22;7907;51.368;6.730;2022-10-16T12:48:29;22.30;99.90
15615;DHT22;7907;51.368;6.730;2022-10-16T12:51:10;22.60;99.90
15615;DHT22;7907;51.368;6.730;2022-10-16T12:53:37;22.80;99.90
15615;DHT22;7907;51.368;6.730;2022-10-16T12:56:11;23.20;99.90
15615;DHT22;7907;51.368;6.730;2022-10-16T12:59:00;23.60;98.30
15615;DHT22;7907;51.368;6.730;2022-10-16T13:01:39;23.90;95.50
15615;DHT22;7907;51.368;6.730;2022-10-16T13:04:31;23.90;95.10
15615;DHT22;7907;51.368;6.730;2022-10-16T13:07:19;23.60;94.90
15615;DHT22;7907;51.368;6.730;2022-10-16T13:09:59;23.50;95.30
15615;DHT22;7907;51.368;6.730;2022-10-16T13:15:40;23.50;95.30
15615;DHT22;7907;51.368;6.730;2022-10-16T13:18:15;23.40;95.00
15615;DHT22;7907;51.368;6.730;2022-10-16T13:21:02;23.10;94.90
15615;DHT22;7907;51.368;6.730;2022-10-16T13:23:37;22.90;97.40
15615;DHT22;7907;51.368;6.730;2022-10-16T13:26:17;22.80;98.00
15615;DHT22;7907;51.368;6.730;2022-10-16T13:28:46;22.70;98.10
15615;DHT22;7907;51.368;6.730;2022-10-16T13:31:17;22.60;98.00
15615;DHT22;7907;51.368;6.730;2022-10-16T13:33:47;22.60;98.40
15615;DHT22;7907;51.368;6.730;2022-10-16T13:36:20;22.70;98.10
15615;DHT22;7907;51.368;6.730;2022-10-16T13:39:00;22.80;98.10
15615;DHT22;7907;51.368;6.730;2022-10-16T13:41:28;22.80;98.10
15615;DHT22;7907;51.368;6.730;2022-10-16T13:43:56;22.80;96.50
15615;DHT22;7907;51.368;6.730;2022-10-16T13:46:25;22.70;95.60
15615;DHT22;7907;51.368;6.730;2022-10-16T13:48:59;22.70;95.80
15615;DHT22;7907;51.368;6.730;2022-10-16T13:51:27;22.60;97.40
15615;DHT22;7907;51.368;6.730;2022-10-16T13:53:57;22.70;96.20
15615;DHT22;7907;51.368;6.730;2022-10-16T13:56:27;22.70;95.50
15615;DHT22;7907;51.368;6.730;2022-10-16T13:59:00;22.80;94.70
15615;DHT22;7907;51.368;6.730;2022-10-16T14:01:29;22.80;95.80
15615;DHT22;7907;51.368;6.730;2022-10-16T14:04:02;23.00;94.20
15615;DHT22;7907;51.368;6.730;2022-10-16T14:06:35;23.60;92.40
15615;DHT22;7907;51.368;6.730;2022-10-16T14:09:06;24.10;86.80
15615;DHT22;7907;51.368;6.730;2022-10-16T14:11:36;24.40;84.60
15615;DHT22;7907;51.368;6.730;2022-10-16T14:14:05;24.30;84.80
15615;DHT22;7907;51.368;6.730;2022-10-16T14:16:40;24.00;83.30
15615;DHT22;7907;51.368;6.730;2022-10-16T14:19:18;23.80;82.80
15615;DHT22;7907;51.368;6.730;2022-10-16T14:21:45;23.50;83.50
15615;DHT22;7907;51.368;6.730;2022-10-16T14:24:25;23.30;82.00
15615;DHT22;7907;51.368;6.730;2022-10-16T14:26:53;23.10;84.40
15615;DHT22;7907;51.368;6.730;2022-10-16T14:29:23;22.90;85.90
15615;DHT22;7907;51.368;6.730;2022-10-16T14:31:55;22.80;86.10
15615;DHT22;7907;51.368;6.730;2022-10-16T14:34:24;22.80;86.30
15615;DHT22;7907;51.368;6.730;2022-10-16T14:36:56;22.70;87.00
15615;DHT22;7907;51.368;6.730;2022-10-16T14:39:25;22.60;88.00
15615;DHT22;7907;51.368;6.730;2022-10-16T14:41:56;22.50;90.10
15615;DHT22;7907;51.368;6.730;2022-10-16T14:44:28;22.40;90.40
15615;DHT22;7907;51.368;6.730;2022-10-16T14:46:56;22.30;91.70
15615;DHT22;7907;51.368;6.730;2022-10-16T14:49:25;22.20;92.40
15615;DHT22;7907;51.368;6.730;2022-10-16T14:51:53;22.10;94.20
15615;DHT22;7907;51.368;6.730;2022-10-16T14:54:21;22.00;96.00
15615;DHT22;7907;51.368;6.730;2022-10-16T14:56:51;22.00;95.10
15615;DHT22;7907;51.368;6.730;2022-10-16T14:59:24;21.90;94.60
15615;DHT22;7907;51.368;6.730;2022-10-16T15:01:53;21.80;96.30
15615;DHT22;7907;51.368;6.730;2022-10-16T15:04:21;21.70;97.60
15615;DHT22;7907;51.368;6.730;2022-10-16T15:06:48;21.60;99.00
15615;DHT22;7907;51.368;6.730;2022-10-16T15:09:15;21.50;99.90
15615;DHT22;7907;51.368;6.730;2022-10-16T15:11:43;21.40;99.90
15615;DHT22;7907;51.368;6.730;2022-10-16T15:14:13;21.30;99.90
15615;DHT22;7907;51.368;6.730;2022-10-16T15:16:40;21.20;99.90
15615;DHT22;7907;51.368;6.730;2022-10-16T15:19:07;21.10;99.90
15615;DHT22;7907;51.368;6.730;2022-10-16T15:21:35;21.10;99.90
15615;DHT22;7907;51.368;6.730;2022-10-16T15:24:02;21.00;99.90
15615;DHT22;7907;51.368;6.730;2022-10-16T15:26:29;21.00;99.90
15615;DHT22;7907;51.368;6.730;2022-10-16T15:28:57;20.90;99.90
15615;DHT22;7907;51.368;6.730;2022-10-16T15:31:26;20.80;99.90
15615;DHT22;7907;51.368;6.730;2022-10-16T15:33:53;20.70;99.90
15615;DHT22;7907;51.368;6.730;2022-10-16T15:36:27;20.70;99.90
15615;DHT22;7907;51.368;6.730;2022-10-16T15:38:54;20.60;99.90
15615;DHT22;7907;51.368;6.730;2022-10-16T15:41:23;20.60;99.90
15615;DHT22;7907;51.368;6.730;2022-10-16T15:43:50;20.50;99.90
15615;DHT22;7907;51.368;6.730;2022-10-16T15:46:19;20.40;99.90
15615;DHT22;7907;51.368;6.730;2022-10-16T15:48:49;20.40;99.90
15615;DHT22;7907;51.368;6.730;2022-10-16T15:51:17;20.30;99.90
15615;DHT22;7907;51.368;6.730;2022-10-16T15:53:44;20.30;99.90
15615;DHT22;7907;51.368;6.730;2022-10-16T15:56:12;20.20;99.90
15615;DHT22;7907;51.368;6.730;2022-10-16T15:58:41;20.10;99.90
15615;DHT22;7907;51.368;6.730;2022-10-16T16:01:09;20.10;99.90
15615;DHT22;7907;51.368;6.730;2022-10-16T16:03:38;20.00;99.90
15615;DHT22;7907;51.368;6.730;2022-10-16T16:06:08;20.00;99.90
15615;DHT22;7907;51.368;6.730;2022-10-16T16:08:36;19.90;99.90
15615;DHT22;7907;51.368;6.730;2022-10-16T16:11:05;19.80;99.90
15615;DHT22;7907;51.368;6.730;2022-10-16T16:13:33;19.80;99.90